sensor_id;sensor_type;location;lat;lon;timestamp;temperature;humidity
10431;DHT22;5262;59.958;17.726;2022-09-03T00:02:19;4.30;99.90
10431;DHT22;5262;59.958;17.726;2022-09-03T00:04:58;4.40;99.90
10431;DHT22;5262;59.958;17.726;2022-09-03T00:10:06;4.60;99.90
10431;DHT22;5262;59.958;17.726;2022-09-03T00:12:37;4.60;99.90
10431;DHT22;5262;59.958;17.726;2022-09-03T00:15:08;4.60;99.90
10431;DHT22;5262;59.958;17.726;2022-09-03T00:17:41;4.70;99.90
10431;DHT22;5262;59.958;17.726;2022-09-03T00:22:52;4.80;99.90
10431;DHT22;5262;59.958;17.726;2022-09-03T00:25:36;4.90;99.90
10431;DHT22;5262;59.958;17.726;2022-09-03T00:28:15;4.90;99.90
10431;DHT22;5262;59.958;17.726;2022-09-03T00:30:45;5.00;99.90
10431;DHT22;5262;59.958;17.726;2022-09-03T00:33:20;5.10;99.90
10431;DHT22;5262;59.958;17.726;2022-09-03T00:35:48;5.10;99.90
10431;DHT22;5262;59.958;17.726;2022-09-03T00:38:15;5.20;99.90
10431;DHT22;5262;59.958;17.726;2022-09-03T00:49:10;5.40;99.90
10431;DHT22;5262;59.958;17.726;2022-09-03T01:00:13;5.50;99.90
10431;DHT22;5262;59.958;17.726;2022-09-03T01:16:33;5.50;99.90
10431;DHT22;5262;59.958;17.726;2022-09-03T01:19:31;5.40;99.90
10431;DHT22;5262;59.958;17.726;2022-09-03T01:30:32;5.30;99.90
10431;DHT22;5262;59.958;17.726;2022-09-03T01:35:59;5.40;99.90
10431;DHT22;5262;59.958;17.726;2022-09-03T01:38:40;5.40;99.90
10431;DHT22;5262;59.958;17.726;2022-09-03T01:47:09;5.50;99.90
10431;DHT22;5262;59.958;17.726;2022-09-03T01:49:49;5.50;99.90
10431;DHT22;5262;59.958;17.726;2022-09-03T01:52:53;5.50;99.90
10431;DHT22;5262;59.958;17.726;2022-09-03T01:55:45;5.50;99.90
10431;DHT22;5262;59.958;17.726;2022-09-03T01:58:35;5.50;99.90
10431;DHT22;5262;59.958;17.726;2022-09-03T02:01:28;5.50;99.90
10431;DHT22;5262;59.958;17.726;2022-09-03T02:03:56;5.50;99.90
10431;DHT22;5262;59.958;17.726;2022-09-03T02:06:25;5.60;99.90
10431;DHT22;5262;59.958;17.726;2022-09-03T02:08:52;5.60;99.90
10431;DHT22;5262;59.958;17.726;2022-09-03T02:11:18;5.60;99.90
10431;DHT22;5262;59.958;17.726;2022-09-03T02:13:47;5.80;99.90
10431;DHT22;5262;59.958;17.726;2022-09-03T02:16:16;5.70;99.90
10431;DHT22;5262;59.958;17.726;2022-09-03T02:18:50;5.80;99.90
10431;DHT22;5262;59.958;17.726;2022-09-03T02:21:19;5.80;99.90
10431;DHT22;5262;59.958;17.726;2022-09-03T02:23:46;5.80;99.90
10431;DHT22;5262;59.958;17.726;2022-09-03T02:26:15;5.90;99.90
10431;DHT22;5262;59.958;17.726;2022-09-03T02:28:42;5.90;99.90
10431;DHT22;5262;59.958;17.726;2022-09-03T02:31:09;6.00;99.90
10431;DHT22;5262;59.958;17.726;2022-09-03T02:33:40;6.00;99.90
10431;DHT22;5262;59.958;17.726;2022-09-03T02:36:12;6.00;99.90
10431;DHT22;5262;59.958;17.726;2022-09-03T02:38:41;6.10;99.90
10431;DHT22;5262;59.958;17.726;2022-09-03T02:41:07;6.10;99.90
10431;DHT22;5262;59.958;17.726;2022-09-03T02:43:44;6.10;99.90
10431;DHT22;5262;59.958;17.726;2022-09-03T02:46:22;6.10;99.90
10431;DHT22;5262;59.958;17.726;2022-09-03T02:48:51;6.20;99.90
10431;DHT22;5262;59.958;17.726;2022-09-03T02:51:17;6.20;99.90
10431;DHT22;5262;59.958;17.726;2022-09-03T02:53:44;6.20;99.90
10431;DHT22;5262;59.958;17.726;2022-09-03T02:56:10;6.20;99.90
10431;DHT22;5262;59.958;17.726;2022-09-03T02:58:36;6.30;99.90
10431;DHT22;5262;59.958;17.726;2022-09-03T03:01:01;6.30;99.90
10431;DHT22;5262;59.958;17.726;2022-09-03T03:03:27;6.30;99.90
10431;DHT22;5262;59.958;17.726;2022-09-03T03:05:56;6.30;99.90
10431;DHT22;5262;59.958;17.726;2022-09-03T03:08:24;6.30;99.90
10431;DHT22;5262;59.958;17.726;2022-09-03T03:10:56;6.40;99.90
10431;DHT22;5262;59.958;17.726;2022-09-03T03:13:27;6.40;99.90
10431;DHT22;5262;59.958;17.726;2022-09-03T03:16:01;6.40;99.90
10431;DHT22;5262;59.958;17.726;2022-09-03T03:18:27;6.40;99.90
10431;DHT22;5262;59.958;17.726;2022-09-03T03:20:53;6.40;99.90
10431;DHT22;5262;59.958;17.726;2022-09-03T03:23:19;6.50;99.90
10431;DHT22;5262;59.958;17.726;2022-09-03T03:25:45;6.50;99.90
10431;DHT22;5262;59.958;17.726;2022-09-03T03:28:11;6.50;99.90
10431;DHT22;5262;59.958;17.726;2022-09-03T03:30:38;6.50;99.90
10431;DHT22;5262;59.958;17.726;2022-09-03T03:33:05;6.50;99.90
10431;DHT22;5262;59.958;17.726;2022-09-03T03:35:31;6.50;99.90
10431;DHT22;5262;59.958;17.726;2022-09-03T03:37:58;6.50;99.90
10431;DHT22;5262;59.958;17.726;2022-09-03T03:40:23;6.50;99.90
10431;DHT22;5262;59.958;17.726;2022-09-03T03:42:49;6.50;99.90
10431;DHT22;5262;59.958;17.726;2022-09-03T03:45:15;6.50;99.90
10431;DHT22;5262;59.958;17.726;2022-09-03T03:47:41;6.50;99.90
10431;DHT22;5262;59.958;17.726;2022-09-03T03:50:07;6.50;99.90
10431;DHT22;5262;59.958;17.726;2022-09-03T03:52:33;6.50;99.90
10431;DHT22;5262;59.958;17.726;2022-09-03T03:54:58;6.60;99.90
10431;DHT22;5262;59.958;17.726;2022-09-03T03:57:24;6.60;99.90
10431;DHT22;5262;59.958;17.726;2022-09-03T03:59:50;6.60;99.90
10431;DHT22;5262;59.958;17.726;2022-09-03T04:02:16;6.60;99.90
10431;DHT22;5262;59.958;17.726;2022-09-03T04:04:42;6.60;99.90
10431;DHT22;5262;59.958;17.726;2022-09-03T04:07:08;6.60;99.90
10431;DHT22;5262;59.958;17.726;2022-09-03T04:09:34;6.70;99.90
10431;DHT22;5262;59.958;17.726;2022-09-03T04:12:00;6.70;99.90
10431;DHT22;5262;59.958;17.726;2022-09-03T04:14:26;6.80;99.90
10431;DHT22;5262;59.958;17.726;2022-09-03T04:16:55;6.80;99.90
10431;DHT22;5262;59.958;17.726;2022-09-03T04:19:21;6.80;99.90
10431;DHT22;5262;59.958;17.726;2022-09-03T04:21:46;6.80;99.90
10431;DHT22;5262;59.958;17.726;2022-09-03T04:24:12;6.80;99.90
10431;DHT22;5262;59.958;17.726;2022-09-03T04:26:38;6.90;99.90
10431;DHT22;5262;59.958;17.726;2022-09-03T04:29:06;6.90;99.90
10431;DHT22;5262;59.958;17.726;2022-09-03T04:31:33;7.00;99.90
10431;DHT22;5262;59.958;17.726;2022-09-03T04:34:00;7.00;99.90
10431;DHT22;5262;59.958;17.726;2022-09-03T04:36:27;7.00;99.90
10431;DHT22;5262;59.958;17.726;2022-09-03T04:38:54;7.10;99.90
10431;DHT22;5262;59.958;17.726;2022-09-03T04:41:22;7.10;99.90
10431;DHT22;5262;59.958;17.726;2022-09-03T04:43:52;7.10;99.90
10431;DHT22;5262;59.958;17.726;2022-09-03T04:46:19;7.10;99.90
10431;DHT22;5262;59.958;17.726;2022-09-03T04:48:49;7.10;99.90
10431;DHT22;5262;59.958;17.726;2022-09-03T04:51:19;7.10;99.90
10431;DHT22;5262;59.958;17.726;2022-09-03T04:53:47;7.20;99.90
10431;DHT22;5262;59.958;17.726;2022-09-03T04:56:19;7.20;99.90
10431;DHT22;5262;59.958;17.726;2022-09-03T04:58:45;7.20;99.90
10431;DHT22;5262;59.958;17.726;2022-09-03T05:01:15;7.30;99.90
10431;DHT22;5262;59.958;17.726;2022-09-03T05:03:41;7.30;99.90
10431;DHT22;5262;59.958;17.726;2022-09-03T05:06:07;7.30;99.90
10431;DHT22;5262;59.958;17.726;2022-09-03T05:08:34;7.40;99.90
10431;DHT22;5262;59.958;17.726;2022-09-03T05:11:05;7.50;99.90
10431;DHT22;5262;59.958;17.726;2022-09-03T05:13:32;7.50;99.90
10431;DHT22;5262;59.958;17.726;2022-09-03T05:16:06;7.60;99.90
10431;DHT22;5262;59.958;17.726;2022-09-03T05:18:33;7.60;99.90
10431;DHT22;5262;59.958;17.726;2022-09-03T05:21:04;7.70;99.90
10431;DHT22;5262;59.958;17.726;2022-09-03T05:23:34;7.60;99.90
10431;DHT22;5262;59.958;17.726;2022-09-03T05:26:02;7.70;99.90
10431;DHT22;5262;59.958;17.726;2022-09-03T05:28:29;7.70;99.90
10431;DHT22;5262;59.958;17.726;2022-09-03T05:31:06;7.80;99.90
10431;DHT22;5262;59.958;17.726;2022-09-03T05:33:37;7.80;99.90
10431;DHT22;5262;59.958;17.726;2022-09-03T05:36:05;7.90;99.90
10431;DHT22;5262;59.958;17.726;2022-09-03T05:38:32;7.90;99.90
10431;DHT22;5262;59.958;17.726;2022-09-03T05:41:02;7.90;99.90
10431;DHT22;5262;59.958;17.726;2022-09-03T05:43:29;8.00;99.90
10431;DHT22;5262;59.958;17.726;2022-09-03T05:46:04;8.10;99.90
10431;DHT22;5262;59.958;17.726;2022-09-03T05:48:30;8.10;99.90
10431;DHT22;5262;59.958;17.726;2022-09-03T05:51:01;8.20;99.90
10431;DHT22;5262;59.958;17.726;2022-09-03T05:53:28;8.30;99.90
10431;DHT22;5262;59.958;17.726;2022-09-03T05:55:59;8.40;99.90
10431;DHT22;5262;59.958;17.726;2022-09-03T05:58:37;8.40;99.90
10431;DHT22;5262;59.958;17.726;2022-09-03T06:03:56;8.50;99.90
10431;DHT22;5262;59.958;17.726;2022-09-03T06:06:23;8.60;99.90
10431;DHT22;5262;59.958;17.726;2022-09-03T06:08:56;8.70;99.90
10431;DHT22;5262;59.958;17.726;2022-09-03T06:11:26;8.80;99.90
10431;DHT22;5262;59.958;17.726;2022-09-03T06:14:01;9.00;99.90
10431;DHT22;5262;59.958;17.726;2022-09-03T06:16:30;9.20;99.90
10431;DHT22;5262;59.958;17.726;2022-09-03T06:18:56;9.30;99.90
10431;DHT22;5262;59.958;17.726;2022-09-03T06:21:22;9.40;99.90
10431;DHT22;5262;59.958;17.726;2022-09-03T06:23:49;9.60;99.90
10431;DHT22;5262;59.958;17.726;2022-09-03T06:26:16;9.80;99.90
10431;DHT22;5262;59.958;17.726;2022-09-03T06:28:43;9.90;99.90
10431;DHT22;5262;59.958;17.726;2022-09-03T06:31:11;9.80;99.90
10431;DHT22;5262;59.958;17.726;2022-09-03T06:33:38;9.90;99.90
10431;DHT22;5262;59.958;17.726;2022-09-03T06:36:07;9.90;99.90
10431;DHT22;5262;59.958;17.726;2022-09-03T06:38:34;9.90;99.90
10431;DHT22;5262;59.958;17.726;2022-09-03T06:41:01;10.00;99.90
10431;DHT22;5262;59.958;17.726;2022-09-03T06:43:33;9.90;99.90
10431;DHT22;5262;59.958;17.726;2022-09-03T06:46:02;9.90;99.90
10431;DHT22;5262;59.958;17.726;2022-09-03T06:48:30;9.90;99.90
10431;DHT22;5262;59.958;17.726;2022-09-03T06:50:59;9.90;99.90
10431;DHT22;5262;59.958;17.726;2022-09-03T06:53:27;9.90;99.90
10431;DHT22;5262;59.958;17.726;2022-09-03T06:55:58;9.90;99.90
10431;DHT22;5262;59.958;17.726;2022-09-03T06:58:29;9.90;99.90
10431;DHT22;5262;59.958;17.726;2022-09-03T07:03:35;9.90;99.90
10431;DHT22;5262;59.958;17.726;2022-09-03T07:06:06;9.90;99.90
10431;DHT22;5262;59.958;17.726;2022-09-03T07:08:33;9.90;99.90
10431;DHT22;5262;59.958;17.726;2022-09-03T07:11:06;9.90;99.90
10431;DHT22;5262;59.958;17.726;2022-09-03T07:13:37;9.90;99.90
10431;DHT22;5262;59.958;17.726;2022-09-03T07:18:41;9.90;99.90
10431;DHT22;5262;59.958;17.726;2022-09-03T07:21:23;9.90;99.90
10431;DHT22;5262;59.958;17.726;2022-09-03T07:23:50;10.00;99.90
10431;DHT22;5262;59.958;17.726;2022-09-03T07:26:21;10.00;99.90
10431;DHT22;5262;59.958;17.726;2022-09-03T07:28:48;10.20;99.90
10431;DHT22;5262;59.958;17.726;2022-09-03T07:31:17;10.40;99.90
10431;DHT22;5262;59.958;17.726;2022-09-03T07:33:45;10.50;99.90
10431;DHT22;5262;59.958;17.726;2022-09-03T07:36:13;10.60;99.90
10431;DHT22;5262;59.958;17.726;2022-09-03T07:38:40;10.70;99.90
10431;DHT22;5262;59.958;17.726;2022-09-03T07:41:08;10.70;99.90
10431;DHT22;5262;59.958;17.726;2022-09-03T07:43:44;10.80;99.90
10431;DHT22;5262;59.958;17.726;2022-09-03T07:46:18;10.80;99.90
10431;DHT22;5262;59.958;17.726;2022-09-03T07:48:47;10.80;99.90
10431;DHT22;5262;59.958;17.726;2022-09-03T07:51:14;10.90;99.90
10431;DHT22;5262;59.958;17.726;2022-09-03T07:53:39;10.90;99.90
10431;DHT22;5262;59.958;17.726;2022-09-03T07:56:07;11.00;99.90
10431;DHT22;5262;59.958;17.726;2022-09-03T07:58:34;11.10;99.90
10431;DHT22;5262;59.958;17.726;2022-09-03T08:01:05;11.20;99.90
10431;DHT22;5262;59.958;17.726;2022-09-03T08:03:33;11.40;99.90
10431;DHT22;5262;59.958;17.726;2022-09-03T08:06:06;11.80;99.90
10431;DHT22;5262;59.958;17.726;2022-09-03T08:08:33;12.30;99.90
10431;DHT22;5262;59.958;17.726;2022-09-03T08:13:47;13.40;99.90
10431;DHT22;5262;59.958;17.726;2022-09-03T08:16:15;14.10;99.90
10431;DHT22;5262;59.958;17.726;2022-09-03T08:18:41;14.50;99.90
10431;DHT22;5262;59.958;17.726;2022-09-03T08:21:12;14.90;99.90
10431;DHT22;5262;59.958;17.726;2022-09-03T08:23:49;15.20;99.80
10431;DHT22;5262;59.958;17.726;2022-09-03T08:26:18;15.30;98.50
10431;DHT22;5262;59.958;17.726;2022-09-03T08:28:44;15.20;96.10
10431;DHT22;5262;59.958;17.726;2022-09-03T08:31:16;15.10;96.50
10431;DHT22;5262;59.958;17.726;2022-09-03T08:33:44;14.90;96.10
10431;DHT22;5262;59.958;17.726;2022-09-03T08:38:47;14.50;96.90
10431;DHT22;5262;59.958;17.726;2022-09-03T08:52:22;13.80;96.30
10431;DHT22;5262;59.958;17.726;2022-09-03T08:54:48;13.70;96.90
10431;DHT22;5262;59.958;17.726;2022-09-03T08:57:18;13.70;97.70
10431;DHT22;5262;59.958;17.726;2022-09-03T08:59:46;13.60;96.90
10431;DHT22;5262;59.958;17.726;2022-09-03T09:05:04;13.80;94.00
10431;DHT22;5262;59.958;17.726;2022-09-03T09:18:05;14.60;90.90
10431;DHT22;5262;59.958;17.726;2022-09-03T09:20:38;14.90;91.60
10431;DHT22;5262;59.958;17.726;2022-09-03T09:23:17;15.10;89.90
10431;DHT22;5262;59.958;17.726;2022-09-03T09:25:47;15.50;88.50
10431;DHT22;5262;59.958;17.726;2022-09-03T09:28:21;15.50;82.20
10431;DHT22;5262;59.958;17.726;2022-09-03T09:30:48;16.10;83.60
10431;DHT22;5262;59.958;17.726;2022-09-03T09:33:17;16.90;78.60
10431;DHT22;5262;59.958;17.726;2022-09-03T09:35:43;16.60;74.00
10431;DHT22;5262;59.958;17.726;2022-09-03T09:38:11;16.20;73.20
10431;DHT22;5262;59.958;17.726;2022-09-03T09:40:42;16.10;71.40
10431;DHT22;5262;59.958;17.726;2022-09-03T09:45:42;16.10;72.30
10431;DHT22;5262;59.958;17.726;2022-09-03T09:48:25;16.50;73.20
10431;DHT22;5262;59.958;17.726;2022-09-03T09:53:43;17.00;71.30
10431;DHT22;5262;59.958;17.726;2022-09-03T09:56:23;17.80;66.40
10431;DHT22;5262;59.958;17.726;2022-09-03T09:58:49;17.90;63.00
10431;DHT22;5262;59.958;17.726;2022-09-03T10:01:26;17.80;61.00
10431;DHT22;5262;59.958;17.726;2022-09-03T10:03:59;17.50;62.10
10431;DHT22;5262;59.958;17.726;2022-09-03T10:06:29;17.30;64.00
10431;DHT22;5262;59.958;17.726;2022-09-03T10:09:14;17.10;64.20
10431;DHT22;5262;59.958;17.726;2022-09-03T10:11:47;17.10;65.80
10431;DHT22;5262;59.958;17.726;2022-09-03T10:14:23;16.70;64.70
10431;DHT22;5262;59.958;17.726;2022-09-03T10:17:00;16.40;67.70
10431;DHT22;5262;59.958;17.726;2022-09-03T10:22:11;16.30;66.30
10431;DHT22;5262;59.958;17.726;2022-09-03T10:24:58;16.20;66.50
10431;DHT22;5262;59.958;17.726;2022-09-03T10:27:26;16.20;67.90
10431;DHT22;5262;59.958;17.726;2022-09-03T10:29:53;16.30;69.10
10431;DHT22;5262;59.958;17.726;2022-09-03T10:32:34;15.90;68.10
10431;DHT22;5262;59.958;17.726;2022-09-03T10:35:07;15.80;70.70
10431;DHT22;5262;59.958;17.726;2022-09-03T10:38:30;15.60;70.10
10431;DHT22;5262;59.958;17.726;2022-09-03T10:40:51;15.50;71.90
10431;DHT22;5262;59.958;17.726;2022-09-03T10:45:59;15.70;71.60
10431;DHT22;5262;59.958;17.726;2022-09-03T10:51:34;15.50;67.30
10431;DHT22;5262;59.958;17.726;2022-09-03T10:54:10;15.70;68.30
10431;DHT22;5262;59.958;17.726;2022-09-03T11:02:16;16.20;62.30
10431;DHT22;5262;59.958;17.726;2022-09-03T11:07:44;16.40;61.00
10431;DHT22;5262;59.958;17.726;2022-09-03T11:10:27;16.10;65.40
10431;DHT22;5262;59.958;17.726;2022-09-03T11:12:56;16.40;62.30
10431;DHT22;5262;59.958;17.726;2022-09-03T11:15:37;16.40;61.70
10431;DHT22;5262;59.958;17.726;2022-09-03T11:18:30;16.20;61.60
10431;DHT22;5262;59.958;17.726;2022-09-03T11:20:59;16.10;65.30
10431;DHT22;5262;59.958;17.726;2022-09-03T11:23:32;16.30;63.80
10431;DHT22;5262;59.958;17.726;2022-09-03T11:26:04;16.50;63.00
10431;DHT22;5262;59.958;17.726;2022-09-03T11:33:50;16.90;60.00
10431;DHT22;5262;59.958;17.726;2022-09-03T11:36:35;17.20;60.20
10431;DHT22;5262;59.958;17.726;2022-09-03T11:41:42;16.30;61.00
10431;DHT22;5262;59.958;17.726;2022-09-03T11:44:19;16.40;61.80
10431;DHT22;5262;59.958;17.726;2022-09-03T11:46:57;16.50;62.90
10431;DHT22;5262;59.958;17.726;2022-09-03T11:49:29;16.30;63.80
10431;DHT22;5262;59.958;17.726;2022-09-03T11:52:02;16.40;63.80
10431;DHT22;5262;59.958;17.726;2022-09-03T11:54:31;16.10;62.00
10431;DHT22;5262;59.958;17.726;2022-09-03T11:57:13;16.30;65.50
10431;DHT22;5262;59.958;17.726;2022-09-03T11:59:41;16.50;65.80
10431;DHT22;5262;59.958;17.726;2022-09-03T12:02:28;17.10;61.90
10431;DHT22;5262;59.958;17.726;2022-09-03T12:08:10;18.30;56.50
10431;DHT22;5262;59.958;17.726;2022-09-03T12:13:19;18.30;57.80
10431;DHT22;5262;59.958;17.726;2022-09-03T12:18:30;19.40;56.70
10431;DHT22;5262;59.958;17.726;2022-09-03T12:26:01;18.30;56.70
10431;DHT22;5262;59.958;17.726;2022-09-03T12:28:28;18.10;56.00
10431;DHT22;5262;59.958;17.726;2022-09-03T12:31:06;17.70;56.60
10431;DHT22;5262;59.958;17.726;2022-09-03T12:33:32;17.20;59.30
10431;DHT22;5262;59.958;17.726;2022-09-03T12:36:00;17.20;58.00
10431;DHT22;5262;59.958;17.726;2022-09-03T12:38:27;17.00;57.20
10431;DHT22;5262;59.958;17.726;2022-09-03T12:40:54;16.60;59.80
10431;DHT22;5262;59.958;17.726;2022-09-03T12:43:26;16.40;58.60
10431;DHT22;5262;59.958;17.726;2022-09-03T12:45:52;16.60;62.00
10431;DHT22;5262;59.958;17.726;2022-09-03T12:48:19;16.70;59.20
10431;DHT22;5262;59.958;17.726;2022-09-03T12:50:47;16.60;58.20
10431;DHT22;5262;59.958;17.726;2022-09-03T12:53:24;16.70;57.50
10431;DHT22;5262;59.958;17.726;2022-09-03T12:55:54;17.00;58.70
10431;DHT22;5262;59.958;17.726;2022-09-03T13:03:54;17.20;56.20
10431;DHT22;5262;59.958;17.726;2022-09-03T13:06:28;17.20;56.40
10431;DHT22;5262;59.958;17.726;2022-09-03T13:09:05;17.30;56.40
10431;DHT22;5262;59.958;17.726;2022-09-03T13:11:34;17.40;57.00
10431;DHT22;5262;59.958;17.726;2022-09-03T13:14:04;17.50;57.70
10431;DHT22;5262;59.958;17.726;2022-09-03T13:19:24;17.10;57.00
10431;DHT22;5262;59.958;17.726;2022-09-03T13:27:17;16.70;56.70
10431;DHT22;5262;59.958;17.726;2022-09-03T13:35:12;16.80;58.80
10431;DHT22;5262;59.958;17.726;2022-09-03T13:38:13;16.70;58.60
10431;DHT22;5262;59.958;17.726;2022-09-03T13:40:48;16.70;58.70
10431;DHT22;5262;59.958;17.726;2022-09-03T13:43:21;16.70;59.40
10431;DHT22;5262;59.958;17.726;2022-09-03T13:45:55;16.40;60.20
10431;DHT22;5262;59.958;17.726;2022-09-03T13:48:33;16.40;60.20
10431;DHT22;5262;59.958;17.726;2022-09-03T13:57:16;16.00;60.60
10431;DHT22;5262;59.958;17.726;2022-09-03T13:59:50;16.00;62.20
10431;DHT22;5262;59.958;17.726;2022-09-03T14:03:02;15.90;65.40
10431;DHT22;5262;59.958;17.726;2022-09-03T14:19:45;15.40;69.40
10431;DHT22;5262;59.958;17.726;2022-09-03T14:22:21;15.10;73.90
10431;DHT22;5262;59.958;17.726;2022-09-03T14:24:55;14.90;75.40
10431;DHT22;5262;59.958;17.726;2022-09-03T14:27:26;14.80;77.60
10431;DHT22;5262;59.958;17.726;2022-09-03T14:41:30;14.40;86.70
10431;DHT22;5262;59.958;17.726;2022-09-03T15:01:17;13.60;91.90
10431;DHT22;5262;59.958;17.726;2022-09-03T15:11:29;13.20;94.40
10431;DHT22;5262;59.958;17.726;2022-09-03T15:14:12;13.20;95.80
10431;DHT22;5262;59.958;17.726;2022-09-03T15:33:47;13.20;97.90
10431;DHT22;5262;59.958;17.726;2022-09-03T15:36:17;13.30;97.70
10431;DHT22;5262;59.958;17.726;2022-09-03T15:44:40;13.40;97.90
10431;DHT22;5262;59.958;17.726;2022-09-03T15:47:29;13.40;96.90
10431;DHT22;5262;59.958;17.726;2022-09-03T15:50:00;13.40;96.80
10431;DHT22;5262;59.958;17.726;2022-09-03T15:55:34;13.40;95.90
10431;DHT22;5262;59.958;17.726;2022-09-03T15:58:24;13.40;97.20
10431;DHT22;5262;59.958;17.726;2022-09-03T16:03:32;13.30;96.90
10431;DHT22;5262;59.958;17.726;2022-09-03T16:06:06;13.20;97.40
10431;DHT22;5262;59.958;17.726;2022-09-03T16:08:47;13.10;96.80
10431;DHT22;5262;59.958;17.726;2022-09-03T16:11:36;13.10;98.20
10431;DHT22;5262;59.958;17.726;2022-09-03T16:14:16;13.00;98.30
10431;DHT22;5262;59.958;17.726;2022-09-03T16:17:07;12.90;98.90
10431;DHT22;5262;59.958;17.726;2022-09-03T16:22:26;12.70;99.50
10431;DHT22;5262;59.958;17.726;2022-09-03T16:24:53;12.70;99.40
10431;DHT22;5262;59.958;17.726;2022-09-03T16:39:01;12.40;99.90
10431;DHT22;5262;59.958;17.726;2022-09-03T16:41:29;12.30;99.90
10431;DHT22;5262;59.958;17.726;2022-09-03T16:46:57;12.20;99.90
10431;DHT22;5262;59.958;17.726;2022-09-03T16:57:56;12.00;99.90
10431;DHT22;5262;59.958;17.726;2022-09-03T17:00:34;11.90;99.90
10431;DHT22;5262;59.958;17.726;2022-09-03T17:19:38;11.50;99.90
10431;DHT22;5262;59.958;17.726;2022-09-03T17:22:33;11.50;99.90
10431;DHT22;5262;59.958;17.726;2022-09-03T17:25:04;11.40;99.90
10431;DHT22;5262;59.958;17.726;2022-09-03T17:44:04;11.20;99.90
10431;DHT22;5262;59.958;17.726;2022-09-03T17:47:29;11.10;99.90
10431;DHT22;5262;59.958;17.726;2022-09-03T17:49:55;11.10;99.90
10431;DHT22;5262;59.958;17.726;2022-09-03T17:52:35;11.00;99.90
10431;DHT22;5262;59.958;17.726;2022-09-03T17:58:18;11.00;99.90
10431;DHT22;5262;59.958;17.726;2022-09-03T18:00:53;11.00;99.90
10431;DHT22;5262;59.958;17.726;2022-09-03T18:04:00;10.90;99.90
10431;DHT22;5262;59.958;17.726;2022-09-03T18:06:55;10.90;99.90
10431;DHT22;5262;59.958;17.726;2022-09-03T18:15:36;10.80;99.90
10431;DHT22;5262;59.958;17.726;2022-09-03T18:18:10;10.80;99.90
10431;DHT22;5262;59.958;17.726;2022-09-03T18:20:44;10.80;99.90
10431;DHT22;5262;59.958;17.726;2022-09-03T18:23:42;10.70;99.90
10431;DHT22;5262;59.958;17.726;2022-09-03T18:26:32;10.60;99.90
10431;DHT22;5262;59.958;17.726;2022-09-03T18:29:45;10.50;99.90
10431;DHT22;5262;59.958;17.726;2022-09-03T18:32:31;10.40;99.90
10431;DHT22;5262;59.958;17.726;2022-09-03T18:35:16;10.30;99.90
10431;DHT22;5262;59.958;17.726;2022-09-03T18:38:03;10.30;99.90
10431;DHT22;5262;59.958;17.726;2022-09-03T18:47:05;10.10;99.90
10431;DHT22;5262;59.958;17.726;2022-09-03T18:50:18;10.00;99.90
10431;DHT22;5262;59.958;17.726;2022-09-03T18:53:26;9.80;99.90
10431;DHT22;5262;59.958;17.726;2022-09-03T18:56:39;9.70;99.90
10431;DHT22;5262;59.958;17.726;2022-09-03T18:59:37;9.70;99.90
10431;DHT22;5262;59.958;17.726;2022-09-03T19:14:28;9.40;99.90
10431;DHT22;5262;59.958;17.726;2022-09-03T19:17:22;9.40;99.90
10431;DHT22;5262;59.958;17.726;2022-09-03T19:20:17;9.30;99.90
10431;DHT22;5262;59.958;17.726;2022-09-03T19:23:04;9.30;99.90
10431;DHT22;5262;59.958;17.726;2022-09-03T19:25:50;9.20;99.90
10431;DHT22;5262;59.958;17.726;2022-09-03T19:28:39;9.10;99.90
10431;DHT22;5262;59.958;17.726;2022-09-03T19:37:19;8.90;99.90
10431;DHT22;5262;59.958;17.726;2022-09-03T19:40:24;8.90;99.90
10431;DHT22;5262;59.958;17.726;2022-09-03T19:43:28;8.80;99.90
10431;DHT22;5262;59.958;17.726;2022-09-03T19:46:29;8.70;99.90
10431;DHT22;5262;59.958;17.726;2022-09-03T19:55:38;8.40;99.90
10431;DHT22;5262;59.958;17.726;2022-09-03T19:58:25;8.30;99.90
10431;DHT22;5262;59.958;17.726;2022-09-03T20:01:12;8.20;99.90
10431;DHT22;5262;59.958;17.726;2022-09-03T20:03:59;8.10;99.90
10431;DHT22;5262;59.958;17.726;2022-09-03T20:06:46;8.00;99.90
10431;DHT22;5262;59.958;17.726;2022-09-03T20:09:36;8.00;99.90
10431;DHT22;5262;59.958;17.726;2022-09-03T20:12:24;7.90;99.90
10431;DHT22;5262;59.958;17.726;2022-09-03T20:14:52;7.80;99.90
10431;DHT22;5262;59.958;17.726;2022-09-03T20:17:42;7.80;99.90
10431;DHT22;5262;59.958;17.726;2022-09-03T20:20:33;7.80;99.90
10431;DHT22;5262;59.958;17.726;2022-09-03T20:23:07;7.70;99.90
10431;DHT22;5262;59.958;17.726;2022-09-03T20:31:16;7.60;99.90
10431;DHT22;5262;59.958;17.726;2022-09-03T20:55:28;7.60;99.90
10431;DHT22;5262;59.958;17.726;2022-09-03T20:58:01;7.60;99.90
10431;DHT22;5262;59.958;17.726;2022-09-03T21:00:52;7.60;99.90
10431;DHT22;5262;59.958;17.726;2022-09-03T21:06:25;7.50;99.90
10431;DHT22;5262;59.958;17.726;2022-09-03T21:14:50;7.30;99.90
10431;DHT22;5262;59.958;17.726;2022-09-03T21:17:23;7.30;99.90
10431;DHT22;5262;59.958;17.726;2022-09-03T21:25:41;7.30;99.90
10431;DHT22;5262;59.958;17.726;2022-09-03T21:28:26;7.30;99.90
10431;DHT22;5262;59.958;17.726;2022-09-03T21:30:58;7.30;99.90
10431;DHT22;5262;59.958;17.726;2022-09-03T21:33:31;7.40;99.90
10431;DHT22;5262;59.958;17.726;2022-09-03T21:36:05;7.40;99.90
10431;DHT22;5262;59.958;17.726;2022-09-03T21:38:38;7.40;99.90
10431;DHT22;5262;59.958;17.726;2022-09-03T21:41:30;7.30;99.90
10431;DHT22;5262;59.958;17.726;2022-09-03T21:44:14;7.30;99.90
10431;DHT22;5262;59.958;17.726;2022-09-03T21:49:30;7.30;99.90
10431;DHT22;5262;59.958;17.726;2022-09-03T21:52:06;7.30;99.90
10431;DHT22;5262;59.958;17.726;2022-09-03T21:54:33;7.30;99.90
10431;DHT22;5262;59.958;17.726;2022-09-03T21:57:17;7.30;99.90
10431;DHT22;5262;59.958;17.726;2022-09-03T22:00:11;7.30;99.90
10431;DHT22;5262;59.958;17.726;2022-09-03T22:02:38;7.40;99.90
10431;DHT22;5262;59.958;17.726;2022-09-03T22:05:05;7.40;99.90
10431;DHT22;5262;59.958;17.726;2022-09-03T22:07:50;7.40;99.90
10431;DHT22;5262;59.958;17.726;2022-09-03T22:11:20;7.40;99.90
10431;DHT22;5262;59.958;17.726;2022-09-03T22:16:25;7.40;99.90
10431;DHT22;5262;59.958;17.726;2022-09-03T22:18:53;7.40;99.90
10431;DHT22;5262;59.958;17.726;2022-09-03T22:27:27;7.40;99.90
10431;DHT22;5262;59.958;17.726;2022-09-03T22:55:20;7.30;99.90
10431;DHT22;5262;59.958;17.726;2022-09-03T22:58:05;7.30;99.90
10431;DHT22;5262;59.958;17.726;2022-09-03T23:00:47;7.20;99.90
10431;DHT22;5262;59.958;17.726;2022-09-03T23:03:18;7.20;99.90
10431;DHT22;5262;59.958;17.726;2022-09-03T23:05:53;7.20;99.90
10431;DHT22;5262;59.958;17.726;2022-09-03T23:08:23;7.20;99.90
10431;DHT22;5262;59.958;17.726;2022-09-03T23:11:07;7.20;99.90
10431;DHT22;5262;59.958;17.726;2022-09-03T23:13:39;7.20;99.90
10431;DHT22;5262;59.958;17.726;2022-09-03T23:18:55;7.20;99.90
10431;DHT22;5262;59.958;17.726;2022-09-03T23:24:08;7.20;99.90
10431;DHT22;5262;59.958;17.726;2022-09-03T23:26:45;7.20;99.90